Tümü
Bronzewing Airport (Lake Darlot Western Australia) YBWG Hava Durumu
There is no TAF data available at YBWG or any nearby airports.
There is no METAR data available at YBWG. Showing METAR data for YMNE (30 mi B).
Yakın zamandaki WME METAR geçmişi (YBWG verisi yok)
| Date | Time (AWST) | Flight Rules | Wind Dir. | Speed | Type | Height AGL (ft) | Visibility | Temp (°C) | Temp (°F) | Dew Point (°C) | Dew Point (°F) | Rel. Humid. | Pressure | Density Altitude | Remarks |
|---|---|---|---|---|---|---|---|---|---|---|---|---|---|---|---|
| 08-May | 19:00 | VFR | 120° | 8 kt | 10000 meters | 16° | 60° | 1° | 33° | 36% | 1026 mb | 1.772 ft | |||
| 08-May | 18:00 | VFR | 130° | 10 kt | 10000 meters | 18° | 64° | 3° | 37° | 37% | 1026 mb | 2.012 ft | |||
| 08-May | 17:00 | VFR | 110° | 13 kt | 10000 meters | 19° | 66° | 2° | 35° | 32% | 1025 mb | 2.161 ft | |||
| 08-May | 16:00 | VFR | 120° | 13 kt | 10000 meters | 20° | 68° | 3° | 37° | 32% | 1025 mb | 2.281 ft | |||
| 08-May | 15:00 | VFR | 120° | 13 kt | 10000 meters | 20° | 68° | 4° | 39° | 35% | 1025 mb | 2.281 ft | |||
| 08-May | 14:00 | VFR | 90° | 12 kt | 10000 meters | 20° | 68° | 3° | 37° | 32% | 1025 mb | 2.281 ft | |||
| 08-May | 13:00 | VFR | 70° | 11 kt | 10000 meters | 20° | 68° | 4° | 39° | 35% | 1026 mb | 2.252 ft | |||
| 08-May | 12:00 | VFR | 70° | 12 kt | 10000 meters | 19° | 66° | 4° | 39° | 37% | 1027 mb | 2.102 ft | |||
| 08-May | 11:00 | VFR | 80° | 11 kt | 10000 meters | 18° | 64° | 5° | 41° | 42% | 1028 mb | 1.953 ft | |||
| 08-May | 10:00 | VFR | 70° | 14 kt | 10000 meters | 16° | 60° | 6° | 42° | 51% | 1029 mb | 1.683 ft | |||
| 08-May | 09:00 | VFR | 80° | 14 kt | 10000 meters | 14° | 57° | 6° | 42° | 58% | 1029 mb | 1.443 ft | |||
| 08-May | 08:00 | VFR | 90° | 13 kt | 10000 meters | 13° | 55° | 6° | 42° | 62% | 1029 mb | 1.323 ft | |||
| 08-May | 07:00 | VFR | 110° | 8 kt | 10000 meters | 10° | 50° | 6° | 42° | 76% | 1029 mb | 963 ft | |||
| 08-May | 06:00 | VFR | 110° | 8 kt | 10000 meters | 9° | 48° | 5° | 41° | 76% | 1029 mb | 843 ft | |||
| 08-May | 05:00 | VFR | 110° | 6 kt | 10000 meters | 9° | 48° | 5° | 41° | 76% | 1028 mb | 873 ft | |||
| 08-May | 04:00 | VFR | 130° | 6 kt | 10000 meters | 9° | 48° | 5° | 41° | 76% | 1028 mb | 873 ft | |||
| 08-May | 03:00 | VFR | 110° | 6 kt | 10000 meters | 11° | 51° | 5° | 41° | 66% | 1028 mb | 1.113 ft | |||
| 08-May | 02:00 | VFR | 120° | 7 kt | 10000 meters | 12° | 53° | 5° | 41° | 62% | 1028 mb | 1.233 ft | |||
| 08-May | 01:00 | VFR | 110° | 8 kt | 10000 meters | 13° | 55° | 5° | 41° | 58% | 1028 mb | 1.353 ft | |||
| 08-May | 00:00 | VFR | 110° | 9 kt | 10000 meters | 13° | 55° | 5° | 41° | 58% | 1028 mb | 1.353 ft | |||
| 07-May | 23:00 | VFR | 110° | 11 kt | 10000 meters | 14° | 57° | 5° | 41° | 55% | 1028 mb | 1.473 ft | |||
| 07-May | 22:00 | VFR | 110° | 13 kt | 10000 meters | 15° | 59° | 6° | 42° | 55% | 1028 mb | 1.593 ft | |||
| 07-May | 21:00 | VFR | 110° | 15 kt | 10000 meters | 16° | 60° | 6° | 42° | 51% | 1028 mb | 1.713 ft | Wind gusting to 25 KT | ||
| 07-May | 20:00 | VFR | 120° | 12 kt | 10000 meters | 17° | 62° | 5° | 41° | 45% | 1027 mb | 1.862 ft |
Giriş
| Tarayıcınız desteklenmiyor. tarayıcınızı yükseltin |
